createdAt,value
2017-05-25T00:00:22.785Z,0
2017-05-25T00:00:48.920Z,0
2017-05-25T00:01:15.018Z,0
2017-05-25T00:01:41.136Z,0
2017-05-25T00:02:07.240Z,0
2017-05-25T00:02:33.335Z,0
2017-05-25T00:02:59.467Z,0
2017-05-25T00:03:25.616Z,0
2017-05-25T00:03:51.757Z,0
2017-05-25T00:04:17.897Z,0
2017-05-25T00:04:44.052Z,0
2017-05-25T00:05:10.189Z,0
2017-05-25T00:05:36.295Z,0
2017-05-25T00:06:02.423Z,0
2017-05-25T00:06:28.538Z,0
2017-05-25T00:06:54.719Z,0
2017-05-25T00:07:20.852Z,0
2017-05-25T00:07:46.994Z,0
2017-05-25T00:08:13.122Z,0
2017-05-25T00:08:39.237Z,0
2017-05-25T00:09:05.393Z,0
2017-05-25T00:09:31.522Z,0
2017-05-25T00:09:57.638Z,0
2017-05-25T00:10:23.769Z,0
2017-05-25T00:10:49.874Z,0
2017-05-25T00:11:15.986Z,0
2017-05-25T00:11:42.115Z,0
2017-05-25T00:12:08.248Z,0
2017-05-25T00:12:34.338Z,0
2017-05-25T00:13:00.436Z,0
2017-05-25T00:13:26.561Z,0
2017-05-25T00:13:52.689Z,0
2017-05-25T00:14:18.822Z,0
2017-05-25T00:14:44.962Z,0
2017-05-25T00:15:11.086Z,0
2017-05-25T00:15:37.221Z,0
2017-05-25T00:16:03.312Z,0
2017-05-25T00:16:29.435Z,0
2017-05-25T00:16:55.540Z,0
2017-05-25T00:17:21.687Z,0
2017-05-25T00:17:47.804Z,0
2017-05-25T00:18:13.965Z,0
2017-05-25T00:18:40.119Z,0
2017-05-25T00:19:06.298Z,0
2017-05-25T00:19:32.468Z,0
2017-05-25T00:19:58.590Z,0
2017-05-25T00:20:24.695Z,0
2017-05-25T00:20:50.817Z,0
2017-05-25T00:21:16.911Z,0
2017-05-25T00:21:43.045Z,0
2017-05-25T00:22:09.170Z,0
2017-05-25T00:22:35.260Z,0
2017-05-25T00:23:01.369Z,0
2017-05-25T00:23:27.498Z,0
2017-05-25T00:23:53.616Z,0
2017-05-25T00:24:19.775Z,0
2017-05-25T00:24:45.918Z,0
2017-05-25T00:25:12.031Z,0
2017-05-25T00:25:38.154Z,0
2017-05-25T00:26:04.270Z,0
2017-05-25T00:26:30.399Z,0
2017-05-25T00:26:56.529Z,0
2017-05-25T00:27:22.620Z,0
2017-05-25T00:27:48.751Z,0
2017-05-25T00:28:14.913Z,0
2017-05-25T00:28:41.001Z,0
2017-05-25T00:29:07.125Z,0
2017-05-25T00:29:33.251Z,0
2017-05-25T00:29:59.342Z,0
2017-05-25T00:30:25.498Z,0
2017-05-25T00:30:51.588Z,0
2017-05-25T00:31:17.718Z,0
2017-05-25T00:31:43.825Z,0
2017-05-25T00:32:09.937Z,0
2017-05-25T00:32:36.089Z,0
2017-05-25T00:33:02.276Z,0
2017-05-25T00:33:28.392Z,0
2017-05-25T00:33:54.512Z,0
2017-05-25T00:34:20.647Z,0
2017-05-25T00:34:46.742Z,0
2017-05-25T00:35:12.856Z,0
2017-05-25T00:35:38.959Z,0
2017-05-25T00:36:05.083Z,0
2017-05-25T00:36:31.247Z,0
2017-05-25T00:36:57.337Z,0
2017-05-25T00:37:23.457Z,0
2017-05-25T00:37:49.622Z,0
2017-05-25T00:38:15.744Z,0
2017-05-25T00:38:41.861Z,0
2017-05-25T00:39:08.025Z,0
2017-05-25T00:39:34.179Z,0
2017-05-25T00:40:00.319Z,0
2017-05-25T00:40:26.425Z,0
2017-05-25T00:40:52.581Z,0
2017-05-25T00:41:18.693Z,0
2017-05-25T00:41:44.797Z,0
2017-05-25T00:42:10.931Z,0
2017-05-25T00:42:37.043Z,0
2017-05-25T00:43:03.167Z,0
2017-05-25T00:43:29.275Z,0
2017-05-25T00:43:55.420Z,0
2017-05-25T00:44:21.544Z,0
2017-05-25T00:44:47.730Z,0
2017-05-25T00:45:13.853Z,0
2017-05-25T00:45:39.943Z,0
2017-05-25T00:46:06.052Z,0
2017-05-25T00:46:32.177Z,0
2017-05-25T00:46:58.332Z,0
2017-05-25T00:47:24.422Z,0
2017-05-25T00:47:50.542Z,0
2017-05-25T00:48:16.677Z,0
2017-05-25T00:48:42.825Z,0
2017-05-25T00:49:08.965Z,0
2017-05-25T00:49:35.076Z,0
2017-05-25T00:50:01.200Z,0
2017-05-25T00:50:27.291Z,0
2017-05-25T00:50:53.454Z,0
2017-05-25T00:51:19.633Z,0
2017-05-25T00:51:45.724Z,0
2017-05-25T00:52:11.856Z,0
2017-05-25T00:52:37.948Z,0
2017-05-25T00:53:04.080Z,0
2017-05-25T00:53:30.177Z,0
2017-05-25T00:53:56.294Z,0
2017-05-25T00:54:22.454Z,0
2017-05-25T00:54:48.640Z,0
2017-05-25T00:55:14.779Z,0
2017-05-25T00:55:40.958Z,0
2017-05-25T00:56:07.064Z,0
2017-05-25T00:56:33.177Z,0
2017-05-25T00:56:59.300Z,0
2017-05-25T00:57:25.434Z,0
2017-05-25T00:57:51.548Z,0
2017-05-25T00:58:17.680Z,0
2017-05-25T00:58:43.822Z,0
2017-05-25T00:59:09.926Z,0
2017-05-25T00:59:36.058Z,0
2017-05-25T01:00:02.174Z,0
2017-05-25T01:00:28.297Z,0
2017-05-25T01:00:54.404Z,0
2017-05-25T01:01:20.547Z,0
2017-05-25T01:01:46.635Z,0
2017-05-25T01:02:12.798Z,0
2017-05-25T01:02:38.891Z,0
2017-05-25T01:03:05.057Z,0
2017-05-25T01:03:31.182Z,0
2017-05-25T01:03:57.306Z,0
2017-05-25T01:04:23.440Z,0
2017-05-25T01:04:49.556Z,0
2017-05-25T01:05:15.703Z,0
2017-05-25T01:05:41.837Z,0
2017-05-25T01:06:07.933Z,0
2017-05-25T01:06:34.046Z,0
2017-05-25T01:07:00.160Z,0
2017-05-25T01:07:26.257Z,0
2017-05-25T01:07:52.370Z,0
2017-05-25T01:08:18.521Z,0
2017-05-25T01:08:44.678Z,0
2017-05-25T01:09:10.826Z,0
2017-05-25T01:09:36.921Z,0
2017-05-25T01:10:03.061Z,0
2017-05-25T01:10:29.170Z,0
2017-05-25T01:10:55.294Z,0
2017-05-25T01:11:21.386Z,0
2017-05-25T01:11:47.491Z,0
2017-05-25T01:12:13.621Z,0
2017-05-25T01:12:39.712Z,0
2017-05-25T01:13:05.868Z,0
2017-05-25T01:13:32.004Z,0
2017-05-25T01:13:58.119Z,0
2017-05-25T01:14:24.218Z,0
2017-05-25T01:14:50.313Z,0
2017-05-25T01:15:16.417Z,0
2017-05-25T01:15:42.546Z,0
2017-05-25T01:16:08.687Z,0
2017-05-25T01:16:34.814Z,0
2017-05-25T01:17:00.973Z,0
2017-05-25T01:17:27.086Z,0
2017-05-25T01:17:53.196Z,0
2017-05-25T01:18:19.322Z,0
2017-05-25T01:18:45.412Z,0
2017-05-25T01:19:11.533Z,0
2017-05-25T01:19:37.693Z,0
2017-05-25T01:20:03.815Z,0
2017-05-25T01:20:29.952Z,0
2017-05-25T01:20:56.039Z,0
2017-05-25T01:21:22.138Z,0
2017-05-25T01:21:48.271Z,0
2017-05-25T01:22:14.389Z,0
2017-05-25T01:22:40.485Z,0
2017-05-25T01:23:06.591Z,0
2017-05-25T01:23:32.712Z,0
2017-05-25T01:23:58.854Z,0
2017-05-25T01:24:25.037Z,0
2017-05-25T01:24:51.114Z,0
2017-05-25T01:25:17.228Z,0
2017-05-25T01:25:43.335Z,0
2017-05-25T01:26:09.438Z,0
2017-05-25T01:26:35.602Z,0
2017-05-25T01:27:01.706Z,0
2017-05-25T01:27:27.906Z,0
2017-05-25T01:27:53.945Z,0
2017-05-25T01:28:20.069Z,0
2017-05-25T01:28:46.207Z,0
2017-05-25T01:29:12.326Z,0
2017-05-25T01:29:38.449Z,0
2017-05-25T01:30:04.555Z,0
2017-05-25T01:30:30.700Z,0
2017-05-25T01:30:56.789Z,0
2017-05-25T01:31:22.914Z,0
2017-05-25T01:31:49.040Z,0
2017-05-25T01:32:15.147Z,0
2017-05-25T01:32:41.267Z,0
2017-05-25T01:33:07.412Z,0
2017-05-25T01:33:33.546Z,0
2017-05-25T01:33:59.692Z,0
2017-05-25T01:34:25.807Z,0
2017-05-25T01:34:51.995Z,0
2017-05-25T01:35:18.174Z,0
2017-05-25T01:35:44.261Z,0
2017-05-25T01:36:10.369Z,0
2017-05-25T01:36:36.551Z,0
2017-05-25T01:37:02.653Z,0
2017-05-25T01:37:28.753Z,0
2017-05-25T01:37:54.879Z,0
2017-05-25T01:38:21.011Z,0
2017-05-25T01:38:47.136Z,0
2017-05-25T01:39:13.251Z,0
2017-05-25T01:39:39.359Z,0
2017-05-25T01:40:05.486Z,0
2017-05-25T01:40:31.601Z,0
2017-05-25T01:40:57.728Z,0
2017-05-25T01:41:23.865Z,0
2017-05-25T01:41:50.001Z,0
2017-05-25T01:42:16.100Z,0
2017-05-25T01:42:42.199Z,0
2017-05-25T01:43:08.325Z,0
2017-05-25T01:43:34.452Z,0
2017-05-25T01:44:00.618Z,0
2017-05-25T01:44:26.773Z,0
2017-05-25T01:44:52.906Z,0
2017-05-25T01:45:19.015Z,0
2017-05-25T01:45:45.115Z,0
2017-05-25T01:46:11.250Z,0
2017-05-25T01:46:37.341Z,0
2017-05-25T01:47:03.510Z,0
2017-05-25T01:47:29.618Z,0
2017-05-25T01:47:55.739Z,0
2017-05-25T01:48:21.869Z,0
2017-05-25T01:48:47.981Z,0
2017-05-25T01:49:14.109Z,0
2017-05-25T01:49:40.274Z,0
2017-05-25T01:50:06.468Z,0
2017-05-25T01:50:32.564Z,0
2017-05-25T01:50:58.669Z,0
2017-05-25T01:51:24.792Z,0
2017-05-25T01:51:50.885Z,0
2017-05-25T01:52:16.996Z,0
2017-05-25T01:52:43.121Z,0
2017-05-25T01:53:09.260Z,0
2017-05-25T01:53:35.394Z,0
2017-05-25T01:54:01.514Z,0
2017-05-25T01:54:27.651Z,0
2017-05-25T01:54:53.743Z,0
2017-05-25T01:55:19.857Z,0
2017-05-25T01:55:45.995Z,0
2017-05-25T01:56:12.093Z,0
2017-05-25T01:56:38.208Z,0
2017-05-25T01:57:04.338Z,0
2017-05-25T01:57:30.438Z,0
2017-05-25T01:57:56.550Z,0
2017-05-25T01:58:22.682Z,0
2017-05-25T01:58:48.821Z,0
2017-05-25T01:59:14.941Z,0
2017-05-25T01:59:41.098Z,0
2017-05-25T02:00:07.261Z,0
2017-05-25T02:00:33.369Z,0
2017-05-25T02:00:59.498Z,0
2017-05-25T02:01:25.615Z,0
2017-05-25T02:01:51.744Z,0
2017-05-25T02:02:17.876Z,0
2017-05-25T02:02:44.017Z,0
2017-05-25T02:03:10.167Z,0
2017-05-25T02:03:36.359Z,0
2017-05-25T02:04:02.504Z,0
2017-05-25T02:04:28.677Z,0
2017-05-25T02:04:54.773Z,0
2017-05-25T02:05:20.893Z,0
2017-05-25T02:05:47.001Z,0
2017-05-25T02:06:13.089Z,0
2017-05-25T02:06:39.189Z,0
2017-05-25T02:07:05.297Z,0
2017-05-25T02:07:31.414Z,0
2017-05-25T02:07:57.560Z,0
2017-05-25T02:08:23.725Z,0
2017-05-25T02:08:49.847Z,0
2017-05-25T02:09:15.962Z,0
2017-05-25T02:09:42.099Z,0
2017-05-25T02:10:08.222Z,0
2017-05-25T02:10:34.315Z,0
2017-05-25T02:11:00.444Z,0
2017-05-25T02:11:26.572Z,0
2017-05-25T02:11:52.663Z,0
2017-05-25T02:12:18.795Z,0
2017-05-25T02:12:44.958Z,0
2017-05-25T02:13:11.045Z,0
2017-05-25T02:13:37.170Z,0
2017-05-25T02:14:03.306Z,0
2017-05-25T02:14:29.421Z,0
2017-05-25T02:14:55.590Z,0
2017-05-25T02:15:21.724Z,0
2017-05-25T02:15:47.816Z,0
2017-05-25T02:16:13.972Z,0
2017-05-25T02:16:40.086Z,0
2017-05-25T02:17:06.223Z,0
2017-05-25T02:17:32.463Z,0
2017-05-25T02:17:58.543Z,0
2017-05-25T02:18:24.665Z,0
2017-05-25T02:18:50.831Z,0
2017-05-25T02:19:16.926Z,0
2017-05-25T02:19:43.066Z,0
2017-05-25T02:20:09.204Z,0
2017-05-25T02:20:35.301Z,0
2017-05-25T02:21:01.413Z,0
2017-05-25T02:21:27.571Z,0
2017-05-25T02:21:53.716Z,0
2017-05-25T02:22:19.878Z,0
2017-05-25T02:22:45.971Z,0
2017-05-25T02:23:12.086Z,0
2017-05-25T02:23:38.197Z,0
2017-05-25T02:24:04.351Z,0
2017-05-25T02:24:30.466Z,0
2017-05-25T02:24:56.651Z,0
2017-05-25T02:25:22.751Z,0
2017-05-25T02:25:48.864Z,0
2017-05-25T02:26:14.993Z,0
2017-05-25T02:26:41.125Z,0
2017-05-25T02:27:07.593Z,0
2017-05-25T02:27:33.690Z,0
2017-05-25T02:27:59.854Z,0
2017-05-25T02:28:26.012Z,0
2017-05-25T02:28:52.165Z,0
2017-05-25T02:29:18.328Z,0
2017-05-25T02:29:44.483Z,0
2017-05-25T02:30:10.618Z,0
2017-05-25T02:30:36.705Z,0
2017-05-25T02:31:02.829Z,0
2017-05-25T02:31:28.936Z,0
2017-05-25T02:31:55.028Z,0
2017-05-25T02:32:21.148Z,0
2017-05-25T02:32:47.272Z,0
2017-05-25T02:33:13.374Z,0
2017-05-25T02:33:39.482Z,0
2017-05-25T02:34:05.593Z,0
2017-05-25T02:34:31.693Z,0
2017-05-25T02:34:57.883Z,0
2017-05-25T02:35:23.973Z,0
2017-05-25T02:35:50.094Z,0
2017-05-25T02:36:16.227Z,0
2017-05-25T02:36:42.323Z,0
2017-05-25T02:37:08.411Z,0
2017-05-25T02:37:34.550Z,0
2017-05-25T02:38:00.702Z,0
2017-05-25T02:38:26.881Z,0
2017-05-25T02:38:53.040Z,4
2017-05-25T02:39:19.195Z,4
2017-05-25T02:39:45.303Z,4
2017-05-25T02:40:11.424Z,4
2017-05-25T02:40:37.563Z,4
2017-05-25T02:41:03.673Z,4
2017-05-25T02:41:29.798Z,0
2017-05-25T02:41:55.912Z,0
2017-05-25T02:42:22.067Z,0
2017-05-25T02:42:48.168Z,0
2017-05-25T02:43:14.260Z,0
2017-05-25T02:43:40.441Z,4
2017-05-25T02:44:06.558Z,4
2017-05-25T02:44:32.696Z,4
2017-05-25T02:44:58.822Z,4
2017-05-25T02:45:24.986Z,4
2017-05-25T02:45:51.118Z,4
2017-05-25T02:46:17.246Z,4
2017-05-25T02:46:43.362Z,0
2017-05-25T02:47:09.464Z,4
2017-05-25T02:47:35.629Z,4
2017-05-25T02:48:01.717Z,4
2017-05-25T02:48:27.866Z,4
2017-05-25T02:48:54.057Z,8
2017-05-25T02:49:20.227Z,4
2017-05-25T02:49:46.330Z,4
2017-05-25T02:50:12.422Z,4
2017-05-25T02:50:38.550Z,8
2017-05-25T02:51:04.657Z,8
2017-05-25T02:51:30.744Z,4
2017-05-25T02:51:56.844Z,8
2017-05-25T02:52:22.976Z,8
2017-05-25T02:52:49.067Z,8
2017-05-25T02:53:15.216Z,8
2017-05-25T02:53:41.348Z,8
2017-05-25T02:54:07.440Z,8
2017-05-25T02:54:33.532Z,8
2017-05-25T02:54:59.700Z,8
2017-05-25T02:55:25.852Z,12
2017-05-25T02:55:51.942Z,8
2017-05-25T02:56:18.050Z,12
2017-05-25T02:56:44.149Z,12
2017-05-25T02:57:10.264Z,16
2017-05-25T02:57:36.367Z,16
2017-05-25T02:58:02.531Z,12
2017-05-25T02:58:28.672Z,16
2017-05-25T02:58:54.843Z,16
2017-05-25T02:59:20.979Z,16
2017-05-25T02:59:47.146Z,16
2017-05-25T03:00:13.270Z,20
2017-05-25T03:00:39.368Z,24
2017-05-25T03:01:05.498Z,24
2017-05-25T03:01:31.634Z,20
2017-05-25T03:01:57.721Z,24
2017-05-25T03:02:23.846Z,28
2017-05-25T03:02:49.976Z,28
2017-05-25T03:03:16.096Z,32
2017-05-25T03:03:42.218Z,32
2017-05-25T03:04:08.327Z,32
2017-05-25T03:04:34.530Z,36
2017-05-25T03:05:00.646Z,36
2017-05-25T03:05:26.757Z,36
2017-05-25T03:05:52.883Z,40
2017-05-25T03:06:19.011Z,44
2017-05-25T03:06:45.129Z,44
2017-05-25T03:07:11.250Z,44
2017-05-25T03:07:37.358Z,48
2017-05-25T03:08:03.481Z,48
2017-05-25T03:08:29.595Z,52
2017-05-25T03:08:55.707Z,52
2017-05-25T03:09:21.832Z,52
2017-05-25T03:09:47.948Z,56
2017-05-25T03:10:14.077Z,56
2017-05-25T03:10:40.233Z,60
2017-05-25T03:11:06.325Z,60
2017-05-25T03:11:32.427Z,60
2017-05-25T03:11:58.518Z,64
2017-05-25T03:12:24.628Z,68
2017-05-25T03:12:50.781Z,68
2017-05-25T03:13:16.921Z,72
2017-05-25T03:13:43.056Z,72
2017-05-25T03:14:09.216Z,76
2017-05-25T03:14:35.350Z,76
2017-05-25T03:15:01.475Z,80
2017-05-25T03:15:27.586Z,80
2017-05-25T03:15:53.673Z,88
2017-05-25T03:16:19.776Z,88
2017-05-25T03:16:45.966Z,88
2017-05-25T03:17:12.059Z,96
2017-05-25T03:17:38.245Z,96
2017-05-25T03:18:04.386Z,100
2017-05-25T03:18:30.539Z,108
2017-05-25T03:18:56.704Z,112
2017-05-25T03:19:22.840Z,112
2017-05-25T03:19:48.962Z,116
2017-05-25T03:20:15.126Z,120
2017-05-25T03:20:41.244Z,128
2017-05-25T03:21:07.344Z,128
2017-05-25T03:21:33.450Z,132
2017-05-25T03:21:59.571Z,136
2017-05-25T03:22:25.689Z,140
2017-05-25T03:22:51.818Z,144
2017-05-25T03:23:17.920Z,148
2017-05-25T03:23:44.054Z,152
2017-05-25T03:24:10.174Z,152
2017-05-25T03:24:36.346Z,156
2017-05-25T03:25:02.453Z,160
2017-05-25T03:25:28.572Z,168
2017-05-25T03:25:54.688Z,172
2017-05-25T03:26:20.821Z,180
2017-05-25T03:26:46.948Z,184
2017-05-25T03:27:13.090Z,188
2017-05-25T03:27:39.220Z,188
2017-05-25T03:28:05.348Z,192
2017-05-25T03:28:31.525Z,196
2017-05-25T03:28:57.627Z,204
2017-05-25T03:29:23.744Z,208
2017-05-25T03:29:49.912Z,216
2017-05-25T03:30:16.057Z,220
2017-05-25T03:30:42.146Z,224
2017-05-25T03:31:08.253Z,228
2017-05-25T03:31:34.353Z,236
2017-05-25T03:32:00.468Z,240
2017-05-25T03:32:26.597Z,248
2017-05-25T03:32:52.731Z,260
2017-05-25T03:33:18.869Z,276
2017-05-25T03:33:44.994Z,288
2017-05-25T03:34:11.116Z,304
2017-05-25T03:34:37.248Z,316
2017-05-25T03:35:03.402Z,324
2017-05-25T03:35:29.521Z,328
2017-05-25T03:35:55.672Z,336
2017-05-25T03:36:21.778Z,336
2017-05-25T03:36:47.919Z,344
2017-05-25T03:37:14.046Z,352
2017-05-25T03:37:40.234Z,360
2017-05-25T03:38:06.325Z,376
2017-05-25T03:38:32.471Z,384
2017-05-25T03:38:58.632Z,396
2017-05-25T03:39:24.788Z,396
2017-05-25T03:39:50.873Z,400
2017-05-25T03:40:16.981Z,404
2017-05-25T03:40:43.082Z,408
2017-05-25T03:41:09.199Z,416
2017-05-25T03:41:35.306Z,424
2017-05-25T03:42:01.407Z,432
2017-05-25T03:42:27.524Z,440
2017-05-25T03:42:53.655Z,452
2017-05-25T03:43:19.819Z,464
2017-05-25T03:43:45.931Z,480
2017-05-25T03:44:12.072Z,492
2017-05-25T03:44:38.234Z,492
2017-05-25T03:45:04.354Z,500
2017-05-25T03:45:30.512Z,508
2017-05-25T03:45:56.601Z,516
2017-05-25T03:46:22.728Z,524
2017-05-25T03:46:48.866Z,528
2017-05-25T03:47:14.951Z,536
2017-05-25T03:47:41.102Z,540
2017-05-25T03:48:07.270Z,552
2017-05-25T03:48:33.408Z,576
2017-05-25T03:48:59.527Z,616
2017-05-25T03:49:25.659Z,644
2017-05-25T03:49:51.782Z,668
2017-05-25T03:50:17.870Z,692
2017-05-25T03:50:44.001Z,712
2017-05-25T03:51:10.100Z,720
2017-05-25T03:51:36.234Z,728
2017-05-25T03:52:02.324Z,732
2017-05-25T03:52:28.449Z,736
2017-05-25T03:52:54.610Z,748
2017-05-25T03:53:20.733Z,756
2017-05-25T03:53:46.873Z,756
2017-05-25T03:54:13.034Z,752
2017-05-25T03:54:39.161Z,760
2017-05-25T03:55:05.299Z,764
2017-05-25T03:55:31.406Z,760
2017-05-25T03:55:57.533Z,752
2017-05-25T03:56:23.656Z,736
2017-05-25T03:56:49.750Z,732
2017-05-25T03:57:15.844Z,736
2017-05-25T03:57:42.008Z,752
2017-05-25T03:58:08.512Z,772
2017-05-25T03:58:34.648Z,800
2017-05-25T03:59:00.813Z,816
2017-05-25T03:59:26.913Z,828
2017-05-25T03:59:53.111Z,824
2017-05-25T04:00:19.230Z,824
2017-05-25T04:00:45.392Z,832
2017-05-25T04:01:11.505Z,844
2017-05-25T04:01:37.630Z,848
2017-05-25T04:02:03.777Z,852
2017-05-25T04:02:29.909Z,860
2017-05-25T04:02:56.067Z,872
2017-05-25T04:03:22.184Z,888
2017-05-25T04:03:48.334Z,920
2017-05-25T04:04:14.496Z,964
2017-05-25T04:04:40.608Z,988
2017-05-25T04:05:06.732Z,1004
2017-05-25T04:05:32.839Z,1016
2017-05-25T04:05:58.931Z,1028
2017-05-25T04:06:25.028Z,1028
2017-05-25T04:06:51.136Z,1028
2017-05-25T04:07:17.227Z,1052
2017-05-25T04:07:43.335Z,1088
2017-05-25T04:08:09.472Z,1112
2017-05-25T04:08:35.623Z,1140
2017-05-25T04:09:01.758Z,1172
2017-05-25T04:09:27.874Z,1200
2017-05-25T04:09:53.992Z,1216
2017-05-25T04:10:20.125Z,1220
2017-05-25T04:10:46.247Z,1232
2017-05-25T04:11:12.343Z,1244
2017-05-25T04:11:38.449Z,1256
2017-05-25T04:12:04.543Z,1272
2017-05-25T04:12:30.638Z,1288
2017-05-25T04:12:56.770Z,1296
2017-05-25T04:13:22.866Z,1292
2017-05-25T04:13:49.000Z,1284
2017-05-25T04:14:15.124Z,1276
2017-05-25T04:14:41.239Z,1280
2017-05-25T04:15:07.376Z,1284
2017-05-25T04:15:33.475Z,1296
2017-05-25T04:15:59.613Z,1312
2017-05-25T04:16:25.748Z,1332
2017-05-25T04:16:51.849Z,1344
2017-05-25T04:17:17.987Z,1352
2017-05-25T04:17:44.142Z,1356
2017-05-25T04:18:10.276Z,1368
2017-05-25T04:18:36.422Z,1392
2017-05-25T04:19:02.579Z,1412
2017-05-25T04:19:28.742Z,1424
2017-05-25T04:19:54.875Z,1416
2017-05-25T04:20:20.974Z,1400
2017-05-25T04:20:47.066Z,1388
2017-05-25T04:21:13.194Z,1376
2017-05-25T04:21:39.357Z,1384
2017-05-25T04:22:05.445Z,1400
2017-05-25T04:22:31.543Z,1404
2017-05-25T04:22:57.651Z,1404
2017-05-25T04:23:23.772Z,1392
2017-05-25T04:23:49.890Z,1384
2017-05-25T04:24:16.023Z,1384
2017-05-25T04:24:42.174Z,1392
2017-05-25T04:25:08.339Z,1400
2017-05-25T04:25:34.448Z,1400
2017-05-25T04:26:00.543Z,1408
2017-05-25T04:26:26.634Z,1432
2017-05-25T04:26:52.767Z,1464
2017-05-25T04:27:18.896Z,1504
2017-05-25T04:27:45.062Z,1560
2017-05-25T04:28:11.194Z,1608
2017-05-25T04:28:37.302Z,1632
2017-05-25T04:29:03.391Z,1640
2017-05-25T04:29:29.516Z,1652
2017-05-25T04:29:55.635Z,1672
2017-05-25T04:30:21.767Z,1700
2017-05-25T04:30:47.896Z,1736
2017-05-25T04:31:14.037Z,1760
2017-05-25T04:31:40.166Z,1768
2017-05-25T04:32:06.270Z,1776
2017-05-25T04:32:32.349Z,1788
2017-05-25T04:32:58.496Z,1804
2017-05-25T04:33:24.659Z,1828
2017-05-25T04:33:50.804Z,1896
2017-05-25T04:34:16.928Z,1984
2017-05-25T04:34:43.091Z,2060
2017-05-25T04:35:09.210Z,2108
2017-05-25T04:35:35.347Z,2140
2017-05-25T04:36:01.430Z,2148
2017-05-25T04:36:27.532Z,2116
2017-05-25T04:36:53.640Z,2096
2017-05-25T04:37:19.731Z,2088
2017-05-25T04:37:45.856Z,2088
2017-05-25T04:38:11.991Z,2100
2017-05-25T04:38:38.141Z,2124
2017-05-25T04:39:04.254Z,2152
2017-05-25T04:39:30.391Z,2156
2017-05-25T04:39:56.488Z,2164
2017-05-25T04:40:22.580Z,2168
2017-05-25T04:40:48.709Z,2196
2017-05-25T04:41:14.805Z,2236
2017-05-25T04:41:40.912Z,2280
2017-05-25T04:42:07.010Z,2308
2017-05-25T04:42:33.100Z,2364
2017-05-25T04:42:59.237Z,2412
2017-05-25T04:43:25.335Z,2468
2017-05-25T04:43:51.452Z,2492
2017-05-25T04:44:17.664Z,2480
2017-05-25T04:44:43.824Z,2472
2017-05-25T04:45:09.939Z,2476
2017-05-25T04:45:36.040Z,2480
2017-05-25T04:46:02.177Z,2500
2017-05-25T04:46:28.263Z,2516
2017-05-25T04:46:54.368Z,2520
2017-05-25T04:47:20.501Z,2524
2017-05-25T04:47:46.696Z,2544
2017-05-25T04:48:12.768Z,2552
2017-05-25T04:48:38.873Z,2576
2017-05-25T04:49:04.998Z,2592
2017-05-25T04:49:31.165Z,2592
2017-05-25T04:49:57.267Z,2588
2017-05-25T04:50:23.391Z,2576
2017-05-25T04:50:49.482Z,2580
2017-05-25T04:51:15.639Z,2608
2017-05-25T04:51:41.746Z,2632
2017-05-25T04:52:07.839Z,2676
2017-05-25T04:52:34.021Z,2760
2017-05-25T04:53:00.119Z,2868
2017-05-25T04:53:26.240Z,3000
2017-05-25T04:53:52.409Z,3128
2017-05-25T04:54:18.552Z,3236
2017-05-25T04:54:44.684Z,3320
2017-05-25T04:55:10.814Z,3392
2017-05-25T04:55:36.981Z,3420
2017-05-25T04:56:03.131Z,3408
2017-05-25T04:56:29.239Z,3420
2017-05-25T04:56:55.325Z,3428
2017-05-25T04:57:21.426Z,3412
2017-05-25T04:57:47.543Z,3424
2017-05-25T04:58:13.649Z,3448
2017-05-25T04:58:39.779Z,3472
2017-05-25T04:59:05.868Z,3512
2017-05-25T04:59:31.971Z,3540
2017-05-25T04:59:58.107Z,3576
2017-05-25T05:00:24.194Z,3624
2017-05-25T05:00:50.294Z,3652
2017-05-25T05:01:16.401Z,3668
2017-05-25T05:01:42.516Z,3704
2017-05-25T05:02:08.616Z,3712
2017-05-25T05:02:34.749Z,3712
2017-05-25T05:03:00.951Z,3720
2017-05-25T05:03:27.089Z,3744
2017-05-25T05:03:53.235Z,3768
2017-05-25T05:04:19.381Z,3764
2017-05-25T05:04:45.517Z,3740
2017-05-25T05:05:11.662Z,3728
2017-05-25T05:05:37.757Z,3744
2017-05-25T05:06:03.950Z,3760
2017-05-25T05:06:30.072Z,3776
2017-05-25T05:06:56.163Z,3832
2017-05-25T05:07:22.273Z,3864
2017-05-25T05:07:48.368Z,3892
2017-05-25T05:08:14.458Z,3912
2017-05-25T05:08:40.622Z,3912
2017-05-25T05:09:06.721Z,3888
2017-05-25T05:09:32.840Z,3868
2017-05-25T05:09:58.968Z,3892
2017-05-25T05:10:25.074Z,4000
2017-05-25T05:10:51.160Z,4140
2017-05-25T05:11:17.289Z,4264
2017-05-25T05:11:43.395Z,4380
2017-05-25T05:12:09.559Z,4464
2017-05-25T05:12:35.638Z,4508
2017-05-25T05:13:01.802Z,4524
2017-05-25T05:13:27.898Z,4500
2017-05-25T05:14:23.836Z,4492
2017-05-25T05:14:49.938Z,4524
2017-05-25T05:15:16.055Z,4508
2017-05-25T05:15:42.195Z,4432
2017-05-25T05:16:08.349Z,4236
2017-05-25T05:16:34.465Z,4072
2017-05-25T05:17:00.573Z,3996
2017-05-25T05:17:26.676Z,4000
2017-05-25T05:17:52.794Z,4028
2017-05-25T05:18:18.897Z,4080
2017-05-25T05:18:45.063Z,4148
2017-05-25T05:19:11.206Z,4188
2017-05-25T05:19:37.381Z,4260
2017-05-25T05:20:03.514Z,4312
2017-05-25T05:20:29.681Z,4352
2017-05-25T05:20:55.787Z,4392
2017-05-25T05:21:21.903Z,4388
2017-05-25T05:21:48.006Z,4292
2017-05-25T05:22:14.122Z,4192
2017-05-25T05:22:40.210Z,4208
2017-05-25T05:23:06.337Z,4292
2017-05-25T05:23:32.443Z,4448
2017-05-25T05:23:58.557Z,4592
2017-05-25T05:24:24.704Z,4664
2017-05-25T05:24:50.864Z,4636
2017-05-25T05:25:16.986Z,4516
2017-05-25T05:25:43.078Z,4476
2017-05-25T05:26:09.236Z,4476
2017-05-25T05:26:35.334Z,4512
2017-05-25T05:27:01.467Z,4520
2017-05-25T05:27:27.564Z,4716
2017-05-25T05:27:53.729Z,4744
2017-05-25T05:28:19.863Z,4780
2017-05-25T05:28:45.986Z,4824
2017-05-25T05:29:12.102Z,4892
2017-05-25T05:29:38.211Z,5064
2017-05-25T05:30:04.334Z,5112
2017-05-25T05:30:30.449Z,5064
2017-05-25T05:30:56.559Z,4984
2017-05-25T05:31:22.688Z,4952
2017-05-25T05:31:48.790Z,4960
2017-05-25T05:32:14.885Z,5048
2017-05-25T05:32:41.027Z,5056
2017-05-25T05:33:07.215Z,5196
2017-05-25T05:33:33.370Z,5304
2017-05-25T05:33:59.487Z,5352
2017-05-25T05:34:25.648Z,5468
2017-05-25T05:34:51.748Z,5596
2017-05-25T05:35:17.863Z,5664
2017-05-25T05:35:43.963Z,5720
2017-05-25T05:36:10.073Z,5820
2017-05-25T05:36:36.159Z,5884
2017-05-25T05:37:02.283Z,5944
2017-05-25T05:37:28.402Z,6036
2017-05-25T05:37:54.565Z,6104
2017-05-25T05:38:20.694Z,6184
2017-05-25T05:38:46.857Z,6232
2017-05-25T05:39:12.986Z,6276
2017-05-25T05:39:39.125Z,6400
2017-05-25T05:40:05.316Z,6592
2017-05-25T05:40:31.420Z,6792
2017-05-25T05:40:57.527Z,6904
2017-05-25T05:41:23.617Z,6952
2017-05-25T05:41:49.740Z,6980
2017-05-25T05:42:15.849Z,7048
2017-05-25T05:42:41.970Z,7264
2017-05-25T05:43:08.127Z,7480
2017-05-25T05:43:34.242Z,7564
2017-05-25T05:44:00.368Z,7724
2017-05-25T05:44:26.474Z,7836
2017-05-25T05:44:52.643Z,7800
2017-05-25T05:45:18.739Z,7680
2017-05-25T05:45:44.845Z,7528
2017-05-25T05:46:10.940Z,7404
2017-05-25T05:46:37.057Z,7348
2017-05-25T05:47:03.221Z,7368
2017-05-25T05:47:29.317Z,7428
2017-05-25T05:47:55.458Z,7440
2017-05-25T05:48:21.565Z,7388
2017-05-25T05:48:47.707Z,7320
2017-05-25T05:49:13.843Z,7304
2017-05-25T05:49:39.941Z,7432
2017-05-25T05:50:06.052Z,7616
2017-05-25T05:50:32.162Z,7632
2017-05-25T05:50:58.286Z,7680
2017-05-25T05:51:24.400Z,7716
2017-05-25T05:51:50.536Z,7696
2017-05-25T05:52:16.666Z,7764
2017-05-25T05:52:42.753Z,7840
2017-05-25T05:53:08.910Z,7936
2017-05-25T05:53:35.073Z,8044
2017-05-25T05:54:01.185Z,8096
2017-05-25T05:54:27.312Z,8060
2017-05-25T05:54:53.418Z,8148
2017-05-25T05:55:19.562Z,8204
2017-05-25T05:55:45.660Z,8292
2017-05-25T05:56:11.793Z,8472
2017-05-25T05:56:37.889Z,8672
2017-05-25T05:57:03.979Z,8848
2017-05-25T05:57:30.087Z,8924
2017-05-25T05:57:56.267Z,8984
2017-05-25T05:58:22.381Z,8980
2017-05-25T05:58:48.538Z,8952
2017-05-25T05:59:14.668Z,8928
2017-05-25T05:59:40.841Z,8960
2017-05-25T06:00:06.933Z,9072
2017-05-25T06:00:33.051Z,9228
2017-05-25T06:00:59.215Z,9280
2017-05-25T06:01:25.312Z,9252
2017-05-25T06:01:51.404Z,9204
2017-05-25T06:02:17.540Z,9144
2017-05-25T06:02:43.641Z,9064
2017-05-25T06:03:09.783Z,9040
2017-05-25T06:03:35.936Z,9112
2017-05-25T06:04:02.095Z,9224
2017-05-25T06:04:28.184Z,9460
2017-05-25T06:04:54.286Z,9864
2017-05-25T06:05:20.378Z,10332
2017-05-25T06:05:46.508Z,11380
2017-05-25T06:06:12.634Z,13068
2017-05-25T06:06:38.725Z,14500
2017-05-25T06:07:04.859Z,15568
2017-05-25T06:07:31.019Z,16416
2017-05-25T06:07:57.133Z,16748
2017-05-25T06:08:23.287Z,17004
2017-05-25T06:08:49.449Z,17124